createdAt,value
2023-05-06T00:00:25.277Z,100.00
2023-05-06T00:02:28.758Z,100.00
2023-05-06T00:04:30.291Z,100.00
2023-05-06T00:06:32.782Z,100.00
2023-05-06T00:08:34.279Z,100.00
2023-05-06T00:10:35.718Z,100.00
2023-05-06T00:12:37.232Z,100.00
2023-05-06T00:14:38.671Z,100.00
2023-05-06T00:16:40.247Z,100.00
2023-05-06T00:18:42.033Z,100.00
2023-05-06T00:20:43.546Z,100.00
2023-05-06T00:22:45.021Z,100.00
2023-05-06T00:24:46.556Z,100.00
2023-05-06T00:26:48.221Z,100.00
2023-05-06T00:28:49.657Z,100.00
2023-05-06T00:30:51.236Z,100.00
2023-05-06T00:32:52.793Z,100.00
2023-05-06T00:34:54.321Z,100.00
2023-05-06T00:36:55.764Z,100.00
2023-05-06T00:38:57.179Z,100.00
2023-05-06T00:40:58.664Z,100.00
2023-05-06T00:43:00.126Z,100.00
2023-05-06T00:45:01.771Z,100.00
2023-05-06T00:47:03.271Z,100.00
2023-05-06T00:49:05.312Z,100.00
2023-05-06T00:51:07.264Z,100.00
2023-05-06T00:53:09.793Z,100.00
2023-05-06T00:55:11.623Z,100.00
2023-05-06T00:57:13.882Z,100.00
2023-05-06T00:59:16.037Z,100.00
2023-05-06T01:01:17.643Z,100.00
2023-05-06T01:03:19.276Z,100.00
2023-05-06T01:05:23.554Z,100.00
2023-05-06T01:07:44.723Z,100.00
2023-05-06T01:09:55.814Z,100.00
2023-05-06T01:12:09.493Z,100.00
2023-05-06T01:14:21.973Z,100.00
2023-05-06T01:16:27.864Z,100.00
2023-05-06T01:18:32.475Z,100.00
2023-05-06T01:20:35.556Z,100.00
2023-05-06T01:22:37.750Z,100.00
2023-05-06T01:24:41.628Z,100.00
2023-05-06T01:26:44.012Z,100.00
2023-05-06T01:28:45.459Z,100.00
2023-05-06T01:30:59.534Z,100.00
2023-05-06T01:33:11.568Z,100.00
2023-05-06T01:35:54.693Z,100.00
2023-05-06T01:38:00.251Z,100.00
2023-05-06T01:40:04.110Z,100.00
2023-05-06T01:42:06.234Z,100.00
2023-05-06T01:44:08.908Z,100.00
2023-05-06T01:46:16.177Z,100.00
2023-05-06T01:48:18.205Z,100.00
2023-05-06T01:50:19.839Z,100.00
2023-05-06T01:52:21.928Z,100.00
2023-05-06T01:54:23.400Z,100.00
2023-05-06T01:56:25.881Z,100.00
2023-05-06T01:58:27.367Z,100.00
2023-05-06T02:00:28.831Z,100.00
2023-05-06T02:02:30.380Z,100.00
2023-05-06T02:04:32.058Z,100.00
2023-05-06T02:06:33.480Z,100.00
2023-05-06T02:08:34.921Z,100.00
2023-05-06T02:10:36.343Z,100.00
2023-05-06T02:12:37.806Z,100.00
2023-05-06T02:14:39.236Z,100.00
2023-05-06T02:16:40.673Z,100.00
2023-05-06T02:18:42.128Z,100.00
2023-05-06T02:20:43.579Z,100.00
2023-05-06T02:22:45.077Z,100.00
2023-05-06T02:24:46.476Z,100.00
2023-05-06T02:26:47.887Z,100.00
2023-05-06T02:28:49.407Z,100.00
2023-05-06T02:30:55.894Z,100.00
2023-05-06T02:33:00.069Z,100.00
2023-05-06T02:35:01.574Z,100.00
2023-05-06T02:37:03.450Z,100.00
2023-05-06T02:39:04.897Z,100.00
2023-05-06T02:41:06.356Z,100.00
2023-05-06T02:43:07.807Z,100.00
2023-05-06T02:45:09.914Z,100.00
2023-05-06T02:47:11.559Z,100.00
2023-05-06T02:49:13.010Z,100.00
2023-05-06T02:51:14.470Z,100.00
2023-05-06T02:53:15.933Z,100.00
2023-05-06T02:55:18.919Z,100.00
2023-05-06T02:57:20.402Z,100.00
2023-05-06T02:59:22.131Z,100.00
2023-05-06T03:01:24.100Z,100.00
2023-05-06T03:03:25.633Z,100.00
2023-05-06T03:05:27.063Z,99.14
2023-05-06T03:07:28.494Z,97.23
2023-05-06T03:09:29.909Z,97.55
2023-05-06T03:11:32.158Z,97.73
2023-05-06T03:13:33.574Z,98.54
2023-05-06T03:15:35.066Z,99.94
2023-05-06T03:17:37.712Z,100.00
2023-05-06T03:19:39.184Z,100.00
2023-05-06T03:21:40.767Z,100.00
2023-05-06T03:23:42.321Z,100.00
2023-05-06T03:25:43.786Z,100.00
2023-05-06T03:27:45.207Z,100.00
2023-05-06T03:29:46.636Z,100.00
2023-05-06T03:31:51.384Z,100.00
2023-05-06T03:33:52.868Z,100.00
2023-05-06T03:35:54.334Z,100.00
2023-05-06T03:37:55.805Z,100.00
2023-05-06T03:39:57.360Z,100.00
2023-05-06T03:41:58.877Z,100.00
2023-05-06T03:44:00.371Z,100.00
2023-05-06T03:46:01.948Z,100.00
2023-05-06T03:48:03.767Z,100.00
2023-05-06T03:50:05.870Z,100.00
2023-05-06T03:52:07.355Z,100.00
2023-05-06T03:54:08.983Z,100.00
2023-05-06T03:56:10.457Z,100.00
2023-05-06T03:58:12.261Z,100.00
2023-05-06T04:00:14.105Z,100.00
2023-05-06T04:02:16.493Z,100.00
2023-05-06T04:04:17.988Z,100.00
2023-05-06T04:06:19.438Z,100.00
2023-05-06T04:08:20.943Z,100.00
2023-05-06T04:10:22.413Z,100.00
2023-05-06T04:12:24.094Z,100.00
2023-05-06T04:14:25.774Z,100.00
2023-05-06T04:16:27.270Z,100.00
2023-05-06T04:18:28.741Z,100.00
2023-05-06T04:20:30.245Z,100.00
2023-05-06T04:22:31.801Z,100.00
2023-05-06T04:24:33.840Z,100.00
2023-05-06T04:26:35.399Z,100.00
2023-05-06T04:28:36.870Z,100.00
2023-05-06T04:30:38.333Z,100.00
2023-05-06T04:32:40.603Z,100.00
2023-05-06T04:34:42.094Z,100.00
2023-05-06T04:36:43.830Z,100.00
2023-05-06T04:38:45.397Z,100.00
2023-05-06T04:40:46.916Z,100.00
2023-05-06T04:42:48.362Z,100.00
2023-05-06T04:44:50.105Z,100.00
2023-05-06T04:46:51.566Z,100.00
2023-05-06T04:48:53.121Z,100.00
2023-05-06T04:50:54.707Z,100.00
2023-05-06T04:52:56.152Z,100.00
2023-05-06T04:54:57.665Z,100.00
2023-05-06T04:56:59.218Z,100.00
2023-05-06T04:59:00.815Z,100.00
2023-05-06T05:01:05.481Z,100.00
2023-05-06T05:03:07.116Z,100.00
2023-05-06T05:05:09.007Z,100.00
2023-05-06T05:07:10.901Z,100.00
2023-05-06T05:09:12.486Z,100.00
2023-05-06T05:11:14.064Z,100.00
2023-05-06T05:13:15.596Z,100.00
2023-05-06T05:15:17.206Z,100.00
2023-05-06T05:17:18.698Z,100.00
2023-05-06T05:19:21.274Z,100.00
2023-05-06T05:21:22.730Z,100.00
2023-05-06T05:23:24.244Z,100.00
2023-05-06T05:25:26.319Z,100.00
2023-05-06T05:27:27.865Z,100.00
2023-05-06T05:29:29.404Z,100.00
2023-05-06T05:31:31.465Z,100.00
2023-05-06T05:33:33.082Z,100.00
2023-05-06T05:35:34.658Z,100.00
2023-05-06T05:37:36.481Z,100.00
2023-05-06T05:39:37.969Z,100.00
2023-05-06T05:41:39.416Z,100.00
2023-05-06T05:43:41.004Z,100.00
2023-05-06T05:45:42.520Z,99.39
2023-05-06T05:47:44.094Z,99.39
2023-05-06T05:49:45.656Z,99.35
2023-05-06T05:51:47.115Z,99.45
2023-05-06T05:53:48.630Z,99.77
2023-05-06T05:55:50.111Z,99.50
2023-05-06T05:57:51.574Z,99.52
2023-05-06T05:59:53.055Z,99.68
2023-05-06T06:01:54.513Z,99.84
2023-05-06T06:03:56.507Z,99.89
2023-05-06T06:05:58.351Z,99.60
2023-05-06T06:08:02.237Z,99.03
2023-05-06T06:10:05.819Z,98.96
2023-05-06T06:12:07.377Z,98.83
2023-05-06T06:14:08.913Z,98.95
2023-05-06T06:16:11.177Z,98.83
2023-05-06T06:18:12.750Z,98.88
2023-05-06T06:20:14.323Z,99.05
2023-05-06T06:22:15.770Z,98.92
2023-05-06T06:24:17.270Z,99.67
2023-05-06T06:26:18.817Z,100.00
2023-05-06T06:28:20.281Z,99.93
2023-05-06T06:30:21.832Z,99.58
2023-05-06T06:32:23.310Z,99.01
2023-05-06T06:34:25.187Z,96.63
2023-05-06T06:36:26.660Z,95.53
2023-05-06T06:38:28.320Z,93.29
2023-05-06T06:40:30.141Z,88.65
2023-05-06T06:42:31.677Z,85.01
2023-05-06T06:44:34.078Z,83.60
2023-05-06T06:46:35.678Z,84.53
2023-05-06T06:48:37.148Z,86.85
2023-05-06T06:50:38.610Z,87.84
2023-05-06T06:52:40.215Z,85.94
2023-05-06T06:54:41.658Z,84.27
2023-05-06T06:56:43.157Z,83.97
2023-05-06T06:58:44.627Z,84.76
2023-05-06T07:00:46.112Z,87.36
2023-05-06T07:02:48.536Z,88.76
2023-05-06T07:04:50.093Z,89.40
2023-05-06T07:06:51.870Z,90.14
2023-05-06T07:08:53.363Z,90.86
2023-05-06T07:10:55.541Z,91.52
2023-05-06T07:12:58.170Z,92.15
2023-05-06T07:14:59.805Z,92.40
2023-05-06T07:17:01.381Z,91.48
2023-05-06T07:19:02.888Z,90.38
2023-05-06T07:21:04.540Z,91.53
2023-05-06T07:23:06.116Z,92.69
2023-05-06T07:25:08.214Z,93.01
2023-05-06T07:27:09.796Z,93.91
2023-05-06T07:29:11.337Z,94.23
2023-05-06T07:31:12.866Z,94.24
2023-05-06T07:33:14.334Z,94.04
2023-05-06T07:35:15.824Z,94.50
2023-05-06T07:37:17.330Z,94.46
2023-05-06T07:39:18.846Z,94.26
2023-05-06T07:41:21.043Z,95.27
2023-05-06T07:43:22.987Z,94.75
2023-05-06T07:45:25.199Z,95.37
2023-05-06T07:47:31.662Z,95.61
2023-05-06T07:49:35.011Z,95.60
2023-05-06T07:51:36.644Z,95.94
2023-05-06T07:53:40.087Z,95.56
2023-05-06T07:55:41.542Z,94.77
2023-05-06T07:57:43.005Z,95.38
2023-05-06T07:59:48.188Z,95.45
2023-05-06T08:01:49.763Z,95.88
2023-05-06T08:03:51.489Z,96.27
2023-05-06T08:05:53.573Z,96.64
2023-05-06T08:07:55.724Z,96.00
2023-05-06T08:09:57.172Z,95.42
2023-05-06T08:11:58.789Z,95.45
2023-05-06T08:14:00.237Z,94.71
2023-05-06T08:16:02.461Z,94.84
2023-05-06T08:18:20.727Z,95.04
2023-05-06T08:20:23.626Z,94.74
2023-05-06T08:22:25.119Z,94.08
2023-05-06T08:24:26.870Z,93.04
2023-05-06T08:26:28.581Z,92.77
2023-05-06T08:28:30.081Z,91.84
2023-05-06T08:30:31.619Z,88.28
2023-05-06T08:32:33.156Z,85.88
2023-05-06T08:34:35.015Z,81.79
2023-05-06T08:36:36.579Z,83.41
2023-05-06T08:38:38.075Z,85.82
2023-05-06T08:40:43.448Z,87.01
2023-05-06T08:42:49.807Z,88.07
2023-05-06T08:44:52.571Z,88.60
2023-05-06T08:46:54.535Z,89.37
2023-05-06T08:48:56.167Z,89.30
2023-05-06T08:51:02.547Z,87.82
2023-05-06T08:53:04.106Z,87.40
2023-05-06T08:55:07.334Z,84.84
2023-05-06T08:57:12.593Z,81.06
2023-05-06T08:59:14.344Z,82.18
2023-05-06T09:01:16.445Z,78.99
2023-05-06T09:03:18.059Z,76.39
2023-05-06T09:05:19.752Z,74.38
2023-05-06T09:07:22.423Z,72.97
2023-05-06T09:09:23.965Z,73.10
2023-05-06T09:11:29.225Z,73.21
2023-05-06T09:13:30.833Z,73.42
2023-05-06T09:15:42.541Z,76.43
2023-05-06T09:17:44.083Z,75.46
2023-05-06T09:19:45.642Z,70.81
2023-05-06T09:21:49.099Z,69.66
2023-05-06T09:23:50.971Z,69.18
2023-05-06T09:25:52.765Z,71.13
2023-05-06T09:28:07.819Z,69.12
2023-05-06T09:30:12.742Z,67.82
2023-05-06T09:32:14.550Z,67.43
2023-05-06T09:34:17.471Z,68.90
2023-05-06T09:36:19.147Z,69.99
2023-05-06T09:38:21.738Z,69.90
2023-05-06T09:40:24.414Z,70.52
2023-05-06T09:42:28.882Z,71.91
2023-05-06T09:44:31.019Z,71.97
2023-05-06T09:46:33.015Z,73.96
2023-05-06T09:48:36.281Z,75.54
2023-05-06T09:50:37.838Z,76.90
2023-05-06T09:52:39.308Z,77.33
2023-05-06T09:54:41.485Z,77.91
2023-05-06T09:56:44.419Z,77.47
2023-05-06T09:58:46.442Z,78.00
2023-05-06T10:00:49.208Z,75.83
2023-05-06T10:02:51.245Z,71.15
2023-05-06T10:04:55.953Z,70.29
2023-05-06T10:07:00.457Z,73.42
2023-05-06T10:09:02.348Z,71.10
2023-05-06T10:11:06.277Z,68.01
2023-05-06T10:13:08.248Z,67.84
2023-05-06T10:15:10.107Z,68.31
2023-05-06T10:17:12.893Z,68.65
2023-05-06T10:19:18.624Z,69.54
2023-05-06T10:21:24.220Z,68.60
2023-05-06T10:23:37.485Z,69.63
2023-05-06T10:25:40.665Z,69.16
2023-05-06T10:27:44.661Z,69.21
2023-05-06T10:29:48.617Z,69.86
2023-05-06T10:31:55.661Z,70.85
2023-05-06T10:34:00.857Z,69.42
2023-05-06T10:36:21.667Z,69.96
2023-05-06T10:38:39.103Z,70.21
2023-05-06T10:40:40.811Z,70.45
2023-05-06T10:42:42.644Z,70.09
2023-05-06T10:45:01.113Z,69.58
2023-05-06T10:47:02.572Z,68.25
2023-05-06T10:49:13.763Z,68.51
2023-05-06T10:51:25.837Z,67.69
2023-05-06T10:54:04.245Z,68.05
2023-05-06T10:56:09.362Z,67.62
2023-05-06T10:58:10.819Z,68.10
2023-05-06T11:00:13.077Z,67.03
2023-05-06T11:02:18.747Z,66.72
2023-05-06T11:04:20.706Z,65.24
2023-05-06T11:06:42.084Z,65.28
2023-05-06T11:08:45.367Z,64.94
2023-05-06T11:10:48.093Z,65.07
2023-05-06T11:12:53.605Z,64.62
2023-05-06T11:15:25.623Z,65.01
2023-05-06T11:17:32.162Z,64.85
2023-05-06T11:19:38.411Z,65.36
2023-05-06T11:21:40.139Z,66.00
2023-05-06T11:23:41.931Z,66.19
2023-05-06T11:25:43.608Z,66.44
2023-05-06T11:27:45.062Z,66.57
2023-05-06T11:29:46.646Z,66.85
2023-05-06T11:31:48.461Z,67.06
2023-05-06T11:33:52.651Z,67.19
2023-05-06T11:35:54.279Z,67.22
2023-05-06T11:37:57.023Z,67.40
2023-05-06T11:39:58.599Z,67.09
2023-05-06T11:42:02.885Z,67.42
2023-05-06T11:44:04.487Z,67.51
2023-05-06T11:46:06.468Z,67.35
2023-05-06T11:48:11.696Z,66.67
2023-05-06T11:50:13.341Z,66.72
2023-05-06T11:52:14.885Z,66.31
2023-05-06T11:54:19.107Z,64.63
2023-05-06T11:56:20.749Z,62.66
2023-05-06T11:58:27.029Z,61.13
2023-05-06T12:00:28.503Z,60.34
2023-05-06T12:02:30.093Z,59.07
2023-05-06T12:04:43.380Z,59.27
2023-05-06T12:06:45.056Z,60.54
2023-05-06T12:08:46.816Z,59.96
2023-05-06T12:10:48.661Z,58.63
2023-05-06T12:12:50.359Z,58.81
2023-05-06T12:14:53.984Z,59.49
2023-05-06T12:16:56.267Z,60.95
2023-05-06T12:18:57.992Z,61.71
2023-05-06T12:21:02.876Z,62.35
2023-05-06T12:23:15.335Z,62.65
2023-05-06T12:25:17.015Z,62.49
2023-05-06T12:27:35.731Z,61.70
2023-05-06T12:29:37.330Z,61.50
2023-05-06T12:31:39.057Z,60.69
2023-05-06T12:33:49.140Z,61.19
2023-05-06T12:35:56.986Z,61.32
2023-05-06T12:38:17.724Z,60.76
2023-05-06T12:40:19.296Z,60.83
2023-05-06T12:42:21.932Z,61.32
2023-05-06T12:44:41.705Z,61.50
2023-05-06T12:46:50.811Z,61.87
2023-05-06T12:49:02.703Z,61.73
2023-05-06T12:51:21.575Z,61.45
2023-05-06T12:53:34.213Z,60.99
2023-05-06T12:55:39.813Z,59.66
2023-05-06T12:57:41.283Z,60.46
2023-05-06T12:59:45.650Z,60.53
2023-05-06T13:01:47.122Z,59.77
2023-05-06T13:03:48.635Z,60.04
2023-05-06T13:05:51.807Z,60.74
2023-05-06T13:07:54.112Z,60.97
2023-05-06T13:09:55.577Z,60.70
2023-05-06T13:11:57.090Z,61.42
2023-05-06T13:13:58.589Z,61.46
2023-05-06T13:16:00.065Z,61.09
2023-05-06T13:18:01.697Z,61.04
2023-05-06T13:20:05.112Z,60.99
2023-05-06T13:22:06.819Z,61.09
2023-05-06T13:24:09.181Z,60.33
2023-05-06T13:26:10.662Z,60.05
2023-05-06T13:28:12.112Z,60.16
2023-05-06T13:30:13.849Z,60.89
2023-05-06T13:32:15.381Z,60.42
2023-05-06T13:34:16.891Z,61.39
2023-05-06T13:36:18.360Z,61.79
2023-05-06T13:38:19.888Z,62.42
2023-05-06T13:40:21.481Z,61.94
2023-05-06T13:42:23.048Z,61.85
2023-05-06T13:44:24.746Z,63.02
2023-05-06T13:46:29.143Z,62.37
2023-05-06T13:48:30.698Z,62.65
2023-05-06T13:50:32.148Z,63.09
2023-05-06T13:52:33.612Z,62.68
2023-05-06T13:54:35.130Z,63.58
2023-05-06T13:56:36.668Z,63.76
2023-05-06T13:58:38.153Z,63.74
2023-05-06T14:00:39.881Z,64.06
2023-05-06T14:02:41.972Z,64.51
2023-05-06T14:04:44.293Z,63.90
2023-05-06T14:06:45.843Z,64.84
2023-05-06T14:08:47.957Z,65.42
2023-05-06T14:10:49.563Z,65.66
2023-05-06T14:12:51.310Z,64.73
2023-05-06T14:14:52.857Z,64.47
2023-05-06T14:16:55.609Z,64.72
2023-05-06T14:18:57.123Z,64.50
2023-05-06T14:20:58.660Z,64.44
2023-05-06T14:23:00.325Z,64.34
2023-05-06T14:25:01.929Z,64.12
2023-05-06T14:27:04.144Z,63.89
2023-05-06T14:29:05.742Z,63.95
2023-05-06T14:31:07.286Z,63.81
2023-05-06T14:33:09.717Z,63.92
2023-05-06T14:35:14.073Z,63.83
2023-05-06T14:37:15.665Z,63.75
2023-05-06T14:39:17.113Z,63.75
2023-05-06T14:41:18.567Z,64.15
2023-05-06T14:43:20.296Z,64.21
2023-05-06T14:45:21.813Z,64.44
2023-05-06T14:47:23.667Z,64.10
2023-05-06T14:49:25.230Z,64.01
2023-05-06T14:51:26.685Z,63.82
2023-05-06T14:53:28.223Z,62.97
2023-05-06T14:55:29.681Z,63.28
2023-05-06T14:57:31.169Z,63.44
2023-05-06T14:59:32.652Z,63.63
2023-05-06T15:01:34.126Z,63.47
2023-05-06T15:03:36.346Z,62.56
2023-05-06T15:05:38.078Z,62.68
2023-05-06T15:07:39.668Z,62.89
2023-05-06T15:09:43.895Z,63.81
2023-05-06T15:11:45.920Z,63.97
2023-05-06T15:13:47.428Z,63.59
2023-05-06T15:15:48.909Z,64.33
2023-05-06T15:17:52.359Z,64.90
2023-05-06T15:19:54.051Z,65.05
2023-05-06T15:21:55.906Z,64.77
2023-05-06T15:23:57.539Z,65.19
2023-05-06T15:25:59.156Z,65.43
2023-05-06T15:28:00.650Z,65.29
2023-05-06T15:30:04.315Z,65.42
2023-05-06T15:32:06.195Z,65.04
2023-05-06T15:34:10.565Z,65.03
2023-05-06T15:36:12.132Z,65.08
2023-05-06T15:38:13.666Z,65.09
2023-05-06T15:40:15.238Z,65.01
2023-05-06T15:42:17.268Z,64.43
2023-05-06T15:44:20.883Z,62.21
2023-05-06T15:46:23.069Z,62.15
2023-05-06T15:48:24.600Z,62.04
2023-05-06T15:52:33.110Z,61.89
2023-05-06T15:54:37.579Z,62.58
2023-05-06T15:56:41.421Z,63.22
2023-05-06T15:58:44.091Z,63.68
2023-05-06T16:00:45.668Z,63.99
2023-05-06T16:02:47.364Z,64.11
2023-05-06T16:04:49.436Z,64.86
2023-05-06T16:06:51.264Z,65.13
2023-05-06T16:08:52.819Z,65.59
2023-05-06T16:10:54.445Z,65.93
2023-05-06T16:12:56.002Z,66.18
2023-05-06T16:14:59.123Z,66.26
2023-05-06T16:17:00.821Z,66.73
2023-05-06T16:19:02.295Z,66.83
2023-05-06T16:21:04.515Z,66.58
2023-05-06T16:23:06.759Z,66.59
2023-05-06T16:25:08.469Z,66.40
2023-05-06T16:27:09.947Z,66.62
2023-05-06T16:29:11.484Z,66.85
2023-05-06T16:31:12.957Z,66.55
2023-05-06T16:33:14.566Z,66.70
2023-05-06T16:35:17.885Z,67.16
2023-05-06T16:37:19.452Z,67.27
2023-05-06T16:39:20.886Z,66.93
2023-05-06T16:41:22.349Z,67.33
2023-05-06T16:43:23.795Z,67.23
2023-05-06T16:45:25.324Z,67.83
2023-05-06T16:47:27.066Z,67.70
2023-05-06T16:49:28.688Z,67.19
2023-05-06T16:51:30.289Z,66.37
2023-05-06T16:53:31.762Z,65.96
2023-05-06T16:55:33.374Z,65.83
2023-05-06T16:57:34.939Z,65.39
2023-05-06T16:59:36.778Z,65.52
2023-05-06T17:01:38.205Z,65.37
2023-05-06T17:03:40.466Z,65.28
2023-05-06T17:05:42.232Z,65.39
2023-05-06T17:07:43.772Z,65.24
2023-05-06T17:09:45.302Z,65.38
2023-05-06T17:11:46.739Z,65.48
2023-05-06T17:13:48.198Z,65.46
2023-05-06T17:15:49.762Z,65.72
2023-05-06T17:17:52.038Z,65.70
2023-05-06T17:19:53.518Z,65.82
2023-05-06T17:21:55.257Z,66.32
2023-05-06T17:23:56.838Z,66.31
2023-05-06T17:25:58.402Z,66.63
2023-05-06T17:27:59.852Z,67.21
2023-05-06T17:30:01.745Z,67.67
2023-05-06T17:32:03.347Z,67.76
2023-05-06T17:34:04.823Z,67.87
2023-05-06T17:36:06.614Z,68.19
2023-05-06T17:38:08.343Z,68.76
2023-05-06T17:40:09.985Z,69.00
2023-05-06T17:42:11.575Z,69.09
2023-05-06T17:44:13.150Z,68.96
2023-05-06T17:46:14.646Z,68.67
2023-05-06T17:48:16.191Z,68.77
2023-05-06T17:50:17.640Z,68.81
2023-05-06T17:52:19.404Z,68.87
2023-05-06T17:54:20.867Z,68.85
2023-05-06T17:56:22.373Z,68.54
2023-05-06T17:58:23.928Z,68.43
2023-05-06T18:00:25.465Z,68.36
2023-05-06T18:02:26.967Z,68.75
2023-05-06T18:04:28.508Z,68.97
2023-05-06T18:06:30.005Z,69.60
2023-05-06T18:08:31.439Z,69.89
2023-05-06T18:10:32.968Z,69.85
2023-05-06T18:12:34.550Z,70.14
2023-05-06T18:14:36.025Z,70.36
2023-05-06T18:16:37.805Z,70.69
2023-05-06T18:18:39.462Z,70.65
2023-05-06T18:20:42.030Z,70.89
2023-05-06T18:22:43.591Z,71.24
2023-05-06T18:24:45.054Z,71.66
2023-05-06T18:26:46.597Z,71.77
2023-05-06T18:28:48.115Z,72.14
2023-05-06T18:30:49.573Z,72.36
2023-05-06T18:32:52.362Z,72.49
2023-05-06T18:34:54.956Z,72.82
2023-05-06T18:36:57.861Z,72.87
2023-05-06T18:38:59.344Z,72.84
2023-05-06T18:41:02.006Z,72.70
2023-05-06T18:43:03.515Z,73.37
2023-05-06T18:45:06.946Z,73.22
2023-05-06T18:47:08.752Z,73.57
2023-05-06T18:49:10.233Z,73.67
2023-05-06T18:51:21.402Z,74.06
2023-05-06T18:53:22.981Z,74.16
2023-05-06T18:55:24.603Z,74.27
2023-05-06T18:57:26.934Z,74.14
2023-05-06T18:59:28.587Z,74.29
2023-05-06T19:01:30.224Z,74.94
2023-05-06T19:03:34.267Z,75.12
2023-05-06T19:05:37.911Z,75.40
2023-05-06T19:07:39.386Z,75.56
2023-05-06T19:09:42.277Z,74.91
2023-05-06T19:11:43.953Z,75.01
2023-05-06T19:13:46.297Z,75.63
2023-05-06T19:15:47.964Z,75.88
2023-05-06T19:17:49.517Z,75.98
2023-05-06T19:19:51.245Z,76.27
2023-05-06T19:21:52.725Z,75.84
2023-05-06T19:23:59.547Z,76.54
2023-05-06T19:26:01.042Z,76.98
2023-05-06T19:28:02.785Z,76.79
2023-05-06T19:30:05.083Z,76.78
2023-05-06T19:32:06.578Z,76.83
2023-05-06T19:34:08.680Z,76.89
2023-05-06T19:36:10.231Z,76.97
2023-05-06T19:38:11.821Z,77.24
2023-05-06T19:40:13.289Z,77.00
2023-05-06T19:42:15.182Z,77.52
2023-05-06T19:44:16.712Z,77.28
2023-05-06T19:46:18.357Z,77.04
2023-05-06T19:48:20.635Z,77.30
2023-05-06T19:50:22.127Z,77.57
2023-05-06T19:52:26.912Z,77.33
2023-05-06T19:54:28.480Z,77.27
2023-05-06T19:56:29.954Z,77.43
2023-05-06T19:58:31.426Z,77.87
2023-05-06T20:00:32.968Z,77.67
2023-05-06T20:02:34.515Z,77.41
2023-05-06T20:04:36.256Z,77.54
2023-05-06T20:06:37.834Z,77.43
2023-05-06T20:08:39.289Z,77.55
2023-05-06T20:10:40.839Z,77.73
2023-05-06T20:12:42.704Z,77.57
2023-05-06T20:14:44.313Z,77.58
2023-05-06T20:16:45.844Z,78.05
2023-05-06T20:18:47.759Z,78.10
2023-05-06T20:20:49.217Z,77.75
2023-05-06T20:22:50.728Z,77.68
2023-05-06T20:24:53.164Z,77.46
2023-05-06T20:26:56.098Z,77.80
2023-05-06T20:28:58.089Z,77.59
2023-05-06T20:30:59.896Z,77.49
2023-05-06T20:33:01.535Z,77.74
2023-05-06T20:35:04.446Z,77.72
2023-05-06T20:37:06.682Z,77.76
2023-05-06T20:39:10.073Z,77.87
2023-05-06T20:41:11.600Z,77.48
2023-05-06T20:43:13.112Z,77.76
2023-05-06T20:45:14.634Z,77.80
2023-05-06T20:47:16.333Z,77.61
2023-05-06T20:49:18.605Z,77.73
2023-05-06T20:51:20.150Z,77.37
2023-05-06T20:53:22.131Z,77.71
2023-05-06T20:55:24.590Z,77.56
2023-05-06T20:57:26.240Z,77.30
2023-05-06T20:59:29.434Z,77.56
2023-05-06T21:01:31.015Z,76.98
2023-05-06T21:03:32.678Z,77.14
2023-05-06T21:05:34.330Z,77.03
2023-05-06T21:07:35.950Z,76.91
2023-05-06T21:09:38.292Z,77.39
2023-05-06T21:11:39.778Z,77.25
2023-05-06T21:13:41.748Z,77.25
2023-05-06T21:15:43.209Z,77.14
2023-05-06T21:17:44.995Z,76.99
2023-05-06T21:19:48.534Z,76.76
2023-05-06T21:21:49.981Z,76.83
2023-05-06T21:23:51.796Z,76.72
2023-05-06T21:25:53.271Z,77.01
2023-05-06T21:27:55.744Z,77.13
2023-05-06T21:29:57.541Z,76.91
2023-05-06T21:31:58.985Z,77.28
2023-05-06T21:34:00.789Z,76.95
2023-05-06T21:36:02.428Z,76.86
2023-05-06T21:38:03.939Z,78.16
2023-05-06T21:40:05.834Z,78.48
2023-05-06T21:42:07.302Z,77.76
2023-05-06T21:44:09.317Z,78.07
2023-05-06T21:46:10.900Z,77.61
2023-05-06T21:48:12.455Z,77.49
2023-05-06T21:50:14.470Z,77.72
2023-05-06T21:52:15.963Z,77.75
2023-05-06T21:54:17.494Z,77.70
2023-05-06T21:56:19.015Z,77.60
2023-05-06T21:58:20.508Z,77.47
2023-05-06T22:00:22.946Z,77.49
2023-05-06T22:02:24.713Z,77.59
2023-05-06T22:04:26.251Z,77.61
2023-05-06T22:06:27.812Z,77.67
2023-05-06T22:08:29.926Z,77.71
2023-05-06T22:10:31.519Z,77.63
2023-05-06T22:12:33.037Z,77.79
2023-05-06T22:14:41.278Z,77.46
2023-05-06T22:16:45.685Z,77.77
2023-05-06T22:18:47.492Z,77.76
2023-05-06T22:20:52.512Z,77.46
2023-05-06T22:22:54.236Z,77.64
2023-05-06T22:24:55.801Z,77.42
2023-05-06T22:26:57.584Z,77.77
2023-05-06T22:28:59.395Z,77.19
2023-05-06T22:31:01.026Z,77.48
2023-05-06T22:33:02.598Z,77.86
2023-05-06T22:35:04.508Z,77.51
2023-05-06T22:37:09.728Z,77.21
2023-05-06T22:39:11.178Z,77.43
2023-05-06T22:41:12.649Z,77.47
2023-05-06T22:43:14.146Z,77.14
2023-05-06T22:45:15.717Z,77.51
2023-05-06T22:47:17.225Z,77.51
2023-05-06T22:49:19.837Z,77.43
2023-05-06T22:51:21.483Z,77.34
2023-05-06T22:53:22.971Z,77.33
2023-05-06T22:55:24.435Z,77.28
2023-05-06T22:57:25.915Z,77.20
2023-05-06T22:59:27.948Z,77.29
2023-05-06T23:01:32.849Z,77.33
2023-05-06T23:03:35.324Z,77.46
2023-05-06T23:05:36.950Z,77.24
2023-05-06T23:07:38.799Z,77.07
2023-05-06T23:09:40.351Z,77.24
2023-05-06T23:11:42.011Z,77.63
2023-05-06T23:13:43.505Z,77.61
2023-05-06T23:15:44.958Z,77.35
2023-05-06T23:17:46.488Z,77.34
2023-05-06T23:19:48.113Z,77.64
2023-05-06T23:21:49.599Z,77.60
2023-05-06T23:23:51.074Z,78.00
2023-05-06T23:25:53.355Z,77.91
2023-05-06T23:27:55.270Z,78.43
2023-05-06T23:29:56.713Z,77.97
2023-05-06T23:31:58.237Z,77.91
2023-05-06T23:33:59.694Z,77.98
2023-05-06T23:36:02.400Z,78.34
2023-05-06T23:38:03.957Z,78.47
2023-05-06T23:40:06.019Z,78.21
2023-05-06T23:42:07.487Z,78.46
2023-05-06T23:44:08.992Z,78.50
2023-05-06T23:46:10.920Z,78.60
2023-05-06T23:48:12.689Z,78.48
2023-05-06T23:50:14.512Z,78.07
2023-05-06T23:52:16.194Z,78.38
2023-05-06T23:54:17.800Z,78.38
2023-05-06T23:56:20.564Z,78.76
2023-05-06T23:58:22.153Z,78.50
